Time;durP1;ratioP1;P1;durP2;ratioP2;P2;SDS_P1;SDS_P2;PMS_P1;PMS_P2;Temp;Humidity;BMP_temperature;BMP_pressure;BME280_temperature;BME280_humidity;BME280_pressure;Samples;Min_cycle;Max_cycle;Signal;HPM_P1;HPM_P2
2022/11/28 00:02:09;;;;;;;14.40;10.23;;;6.30;99.90;;;;;;5116149;27;20387;-75
2022/11/28 00:04:34;;;;;;;12.15;9.70;;;6.30;99.90;;;;;;5116287;27;20039;-75
2022/11/28 00:07:00;;;;;;;14.52;10.20;;;6.30;99.90;;;;;;5134298;27;20046;-75
2022/11/28 00:09:25;;;;;;;14.82;10.00;;;7.60;99.90;;;;;;5134466;27;20039;-75
2022/11/28 00:11:51;;;;;;;13.43;9.85;;;6.30;99.90;;;;;;5133896;27;20126;-75
2022/11/28 00:14:18;;;;;;;12.27;9.07;;;7.30;99.90;;;;;;5134293;27;20035;-75
2022/11/28 00:16:44;;;;;;;14.98;9.68;;;6.40;99.90;;;;;;5133952;27;20039;-75
2022/11/28 00:19:11;;;;;;;14.63;8.80;;;6.30;99.90;;;;;;5115322;27;20043;-75
2022/11/28 00:21:37;;;;;;;13.75;8.68;;;6.30;99.90;;;;;;5120992;27;20460;-75
2022/11/28 00:24:03;;;;;;;13.35;9.05;;;6.30;99.90;;;;;;5133158;27;20062;-75
2022/11/28 00:26:31;;;;;;;12.10;8.60;;;6.30;99.90;;;;;;5133289;27;20373;-75
2022/11/28 00:28:57;;;;;;;13.48;8.75;;;6.20;99.90;;;;;;5133638;27;20082;-76
2022/11/28 00:31:25;;;;;;;11.75;8.77;;;6.20;99.90;;;;;;5114121;27;20038;-75
2022/11/28 00:33:52;;;;;;;12.00;7.82;;;7.40;99.90;;;;;;5115315;27;20036;-75
2022/11/28 00:36:18;;;;;;;11.30;7.97;;;6.20;99.90;;;;;;5114762;27;20039;-75
2022/11/28 00:38:44;;;;;;;14.13;8.50;;;6.20;99.90;;;;;;5133461;27;20042;-75
2022/11/28 00:41:15;;;;;;;11.02;7.53;;;6.20;99.90;;;;;;5114647;27;20031;-75
2022/11/28 00:43:42;;;;;;;11.73;8.02;;;6.20;99.90;;;;;;5126078;27;20046;-75
2022/11/28 00:46:08;;;;;;;11.95;8.32;;;6.30;99.90;;;;;;5125175;27;20058;-75
2022/11/28 00:48:35;;;;;;;14.85;8.23;;;5.40;99.90;;;;;;5114322;27;20059;-75
2022/11/28 00:51:05;;;;;;;13.43;8.60;;;7.30;99.90;;;;;;5133372;27;20032;-75
2022/11/28 00:53:30;;;;;;;14.60;9.00;;;6.30;99.90;;;;;;5133480;27;20039;-75
2022/11/28 00:55:56;;;;;;;12.38;7.90;;;6.30;99.90;;;;;;5121957;27;20092;-75
2022/11/28 00:58:21;;;;;;;11.95;7.53;;;6.30;99.90;;;;;;5112984;28;20119;-75
2022/11/28 01:00:47;;;;;;;13.48;8.23;;;6.30;99.90;;;;;;5112854;28;20048;-75
2022/11/28 01:03:12;;;;;;;12.48;8.57;;;6.30;99.90;;;;;;5113015;28;20039;-75
2022/11/28 01:05:42;;;;;;;12.90;8.20;;;6.30;99.90;;;;;;5112904;28;20039;-75
2022/11/28 01:08:10;;;;;;;13.52;8.30;;;6.40;99.90;;;;;;5106517;28;20047;-75
2022/11/28 01:10:41;;;;;;;10.77;8.05;;;7.60;99.90;;;;;;5114662;28;20502;-75
2022/11/28 01:13:08;;;;;;;13.07;8.35;;;6.40;99.90;;;;;;5133119;28;20039;-75
2022/11/28 01:15:34;;;;;;;15.00;8.60;;;6.40;99.90;;;;;;5133563;28;20459;-75
2022/11/28 01:18:01;;;;;;;15.20;8.80;;;6.40;99.90;;;;;;5133530;28;20047;-75
2022/11/28 01:20:27;;;;;;;13.57;8.10;;;7.30;99.90;;;;;;5113547;28;20428;-75
2022/11/28 01:22:53;;;;;;;14.32;8.38;;;6.80;99.90;;;;;;5097290;28;20471;-75
2022/11/28 01:25:19;;;;;;;14.23;8.90;;;6.40;99.90;;;;;;5132839;28;20043;-75
2022/11/28 01:27:45;;;;;;;10.93;8.13;;;6.40;99.90;;;;;;5132806;28;20039;-75
2022/11/28 01:30:11;;;;;;;12.38;8.10;;;6.40;99.90;;;;;;5133332;27;20054;-76
2022/11/28 01:32:36;;;;;;;13.10;7.80;;;6.50;99.90;;;;;;5137415;27;20126;-75
2022/11/28 01:35:02;;;;;;;11.70;7.90;;;6.50;99.90;;;;;;5101601;27;20513;-75
2022/11/28 01:37:29;;;;;;;13.45;8.70;;;6.50;99.90;;;;;;5137269;27;20058;-75
2022/11/28 01:39:54;;;;;;;14.13;8.15;;;6.50;99.90;;;;;;5136707;27;20049;-75
2022/11/28 01:42:20;;;;;;;12.43;8.20;;;6.50;99.90;;;;;;5122386;27;20070;-75
2022/11/28 01:44:49;;;;;;;14.13;8.20;;;6.50;99.90;;;;;;5135679;27;20039;-76
2022/11/28 01:47:20;;;;;;;11.05;7.90;;;6.50;99.90;;;;;;5118697;27;20278;-75
2022/11/28 01:49:48;;;;;;;12.07;7.85;;;7.40;99.90;;;;;;5137006;27;20411;-75
2022/11/28 01:52:18;;;;;;;12.80;7.97;;;6.60;99.90;;;;;;5118184;27;20096;-75
2022/11/28 01:54:48;;;;;;;13.75;8.57;;;6.60;99.90;;;;;;5136212;27;20483;-75
2022/11/28 01:57:20;;;;;;;11.52;8.15;;;6.60;99.90;;;;;;5118641;27;20585;-75
2022/11/28 01:59:54;;;;;;;14.93;8.80;;;6.70;99.90;;;;;;5108477;28;20456;-75
2022/11/28 02:02:45;;;;;;;15.00;9.45;;;6.70;99.90;;;;;;5097126;28;20051;-75
2022/11/28 02:05:11;;;;;;;12.82;8.73;;;6.70;99.90;;;;;;5098168;28;20426;-75
2022/11/28 02:07:37;;;;;;;15.85;9.57;;;6.70;99.90;;;;;;5115978;28;20149;-76
2022/11/28 02:10:06;;;;;;;16.67;9.45;;;6.80;99.90;;;;;;5097988;28;20062;-75
2022/11/28 02:12:50;;;;;;;15.68;10.13;;;6.70;99.90;;;;;;5129677;27;20039;-75
2022/11/28 02:15:18;;;;;;;15.18;9.98;;;6.70;99.90;;;;;;5136504;27;20056;-75
2022/11/28 02:18:02;;;;;;;17.85;9.63;;;6.60;99.90;;;;;;5134830;27;20039;-75
2022/11/28 02:21:06;;;;;;;15.57;9.95;;;6.60;99.90;;;;;;5117523;27;20217;-75
2022/11/28 02:24:09;;;;;;;21.67;10.82;;;6.60;99.90;;;;;;5104310;27;20047;-75
2022/11/28 02:26:52;;;;;;;15.95;9.88;;;6.60;99.90;;;;;;5117150;27;20057;-75
2022/11/28 02:29:40;;;;;;;16.75;10.93;;;6.80;99.90;;;;;;5117724;27;20126;-75
2022/11/28 02:32:33;;;;;;;21.40;11.57;;;6.70;99.90;;;;;;5106253;27;20051;-75
2022/11/28 02:35:24;;;;;;;19.95;12.77;;;6.60;99.90;;;;;;5116978;27;20455;-75
2022/11/28 02:38:03;;;;;;;19.10;12.38;;;6.50;99.90;;;;;;5135870;27;20125;-75
2022/11/28 02:40:54;;;;;;;17.92;12.73;;;6.50;99.90;;;;;;5100539;27;20119;-75
2022/11/28 02:43:34;;;;;;;19.25;13.63;;;6.50;99.90;;;;;;5109298;27;20050;-75
2022/11/28 02:46:28;;;;;;;20.33;13.57;;;6.50;99.90;;;;;;5134540;27;20539;-75
2022/11/28 02:49:00;;;;;;;21.02;13.38;;;6.50;99.90;;;;;;5134174;27;20047;-75
2022/11/28 02:51:50;;;;;;;21.55;13.77;;;6.50;99.90;;;;;;5116561;27;20459;-75
2022/11/28 02:54:19;;;;;;;22.13;13.90;;;6.60;99.90;;;;;;5135656;27;20039;-75
2022/11/28 02:56:49;;;;;;;21.27;14.30;;;6.60;99.90;;;;;;5135043;27;20043;-75
2022/11/28 02:59:36;;;;;;;24.10;15.18;;;6.60;99.90;;;;;;5117384;27;20407;-75
2022/11/28 03:02:09;;;;;;;22.00;13.88;;;6.60;99.90;;;;;;5116897;27;20130;-75
2022/11/28 03:04:53;;;;;;;23.35;15.63;;;6.60;99.90;;;;;;5135614;27;20050;-75
2022/11/28 03:07:37;;;;;;;20.50;14.05;;;6.60;99.90;;;;;;5109990;27;20050;-75
2022/11/28 03:10:18;;;;;;;20.73;14.98;;;6.60;99.90;;;;;;5117045;27;20043;-75
2022/11/28 03:13:21;;;;;;;20.85;13.98;;;6.60;99.90;;;;;;5134836;27;20043;-75
2022/11/28 03:16:13;;;;;;;23.63;15.18;;;6.50;99.90;;;;;;5114504;27;20114;-75
2022/11/28 03:18:54;;;;;;;23.58;14.27;;;6.50;99.90;;;;;;5134969;27;20050;-75
2022/11/28 03:21:32;;;;;;;20.08;13.98;;;6.60;99.90;;;;;;5114935;27;20099;-75
2022/11/28 03:24:09;;;;;;;20.48;14.23;;;6.60;99.90;;;;;;5099454;27;20127;-75
2022/11/28 03:27:01;;;;;;;19.42;13.55;;;6.60;99.90;;;;;;5134944;27;20082;-75
2022/11/28 03:29:46;;;;;;;22.58;14.85;;;6.50;99.90;;;;;;5116173;27;20043;-75
2022/11/28 03:32:27;;;;;;;20.50;14.52;;;6.60;99.90;;;;;;5097954;28;20058;-75
2022/11/28 03:34:59;;;;;;;25.85;16.10;;;6.50;99.90;;;;;;5115666;27;20115;-75
2022/11/28 03:37:39;;;;;;;20.02;15.05;;;6.50;99.90;;;;;;5099376;27;20134;-75
2022/11/28 03:40:11;;;;;;;24.35;15.63;;;7.60;99.90;;;;;;5116125;27;20058;-75
2022/11/28 03:42:46;;;;;;;23.70;15.70;;;6.50;99.90;;;;;;5134533;27;20347;-75
2022/11/28 03:45:18;;;;;;;22.75;15.63;;;6.50;99.90;;;;;;5134109;27;20054;-75
2022/11/28 03:47:51;;;;;;;27.50;17.88;;;6.50;99.90;;;;;;5099475;27;20082;-75
2022/11/28 03:50:21;;;;;;;27.17;17.45;;;6.50;99.90;;;;;;5134599;27;20487;-75
2022/11/28 03:52:57;;;;;;;23.52;16.77;;;6.50;99.90;;;;;;5115975;27;20047;-75
2022/11/28 03:55:46;;;;;;;23.38;16.70;;;6.60;99.90;;;;;;5134623;27;20039;-75
2022/11/28 03:58:22;;;;;;;22.23;15.75;;;6.60;99.90;;;;;;5086853;27;20058;-76
2022/11/28 04:00:55;;;;;;;;;;;6.60;99.90;;;;;;5134954;27;20126;-75
2022/11/28 04:03:48;;;;;;;25.58;16.88;;;6.60;99.90;;;;;;5115333;27;20014;-75
2022/11/28 04:06:23;;;;;;;24.40;17.77;;;7.80;99.90;;;;;;5105098;28;20072;-75
2022/11/28 04:09:05;;;;;;;24.58;17.92;;;6.60;99.90;;;;;;5113164;28;20071;-75
2022/11/28 04:11:38;;;;;;;30.30;19.23;;;6.60;99.90;;;;;;5137854;27;20837;-75
2022/11/28 04:14:47;;;;;;;24.45;17.63;;;6.60;99.90;;;;;;5155354;27;20078;-75
2022/11/28 04:17:18;;;;;;;30.65;19.40;;;6.60;99.90;;;;;;5136482;27;20038;-75
2022/11/28 04:19:53;;;;;;;30.45;20.20;;;6.60;99.90;;;;;;5114643;27;20182;-76
2022/11/28 04:22:20;;;;;;;27.55;19.75;;;6.60;99.90;;;;;;5098675;27;20047;-75
2022/11/28 04:25:09;;;;;;;29.90;19.92;;;6.70;99.90;;;;;;5094059;28;20417;-75
2022/11/28 04:27:48;;;;;;;31.45;21.73;;;6.70;99.90;;;;;;5118428;27;20043;-75
2022/11/28 04:30:14;;;;;;;28.17;20.08;;;6.70;99.90;;;;;;5096273;27;20043;-75
2022/11/28 04:32:46;;;;;;;31.08;21.73;;;6.70;99.90;;;;;;5133104;27;20055;-75
2022/11/28 04:35:20;;;;;;;34.20;21.80;;;7.40;99.90;;;;;;5133844;27;20037;-75
2022/11/28 04:37:47;;;;;;;29.55;21.02;;;6.70;99.90;;;;;;5114860;27;20085;-75
2022/11/28 04:40:15;;;;;;;35.38;22.58;;;6.80;99.90;;;;;;5114572;27;20104;-75
2022/11/28 04:42:40;;;;;;;32.75;23.40;;;6.80;99.90;;;;;;5115037;27;20047;-76
2022/11/28 04:45:26;;;;;;;33.50;22.20;;;6.80;99.90;;;;;;5131874;27;20039;-75
2022/11/28 04:47:52;;;;;;;36.63;23.15;;;6.90;99.90;;;;;;5113044;27;20050;-75
2022/11/28 04:50:17;;;;;;;33.17;23.25;;;6.90;99.90;;;;;;5133534;27;20375;-75
2022/11/28 04:53:02;;;;;;;37.72;25.20;;;6.90;99.90;;;;;;5114800;28;20119;-75
2022/11/28 04:55:34;;;;;;;38.67;24.98;;;6.90;99.90;;;;;;5097938;28;20069;-75
2022/11/28 04:58:12;;;;;;;37.08;24.88;;;6.90;99.90;;;;;;5133275;27;20127;-75
2022/11/28 05:00:38;;;;;;;38.95;25.90;;;6.90;99.90;;;;;;5114115;28;20509;-75
2022/11/28 05:03:04;;;;;;;38.55;25.63;;;7.00;99.90;;;;;;5095269;28;20070;-75
2022/11/28 05:05:29;;;;;;;35.72;25.45;;;7.00;99.90;;;;;;5096938;28;20484;-75
2022/11/28 05:07:57;;;;;;;39.95;25.98;;;7.00;99.90;;;;;;5114449;28;20047;-75
2022/11/28 05:10:23;;;;;;;37.13;24.58;;;7.00;99.90;;;;;;5114369;28;20046;-75
2022/11/28 05:12:49;;;;;;;39.55;25.50;;;7.00;99.90;;;;;;5114146;28;20107;-75
2022/11/28 05:15:18;;;;;;;38.33;24.60;;;7.10;99.90;;;;;;5133316;28;20058;-75
2022/11/28 05:17:45;;;;;;;41.50;26.05;;;7.10;99.90;;;;;;5113898;28;20126;-75
2022/11/28 05:20:11;;;;;;;33.63;22.58;;;7.20;99.90;;;;;;5133257;28;20122;-75
2022/11/28 05:22:36;;;;;;;34.25;24.98;;;7.20;99.90;;;;;;5114148;28;20119;-75
2022/11/28 05:25:02;;;;;;;33.67;23.50;;;7.20;99.90;;;;;;5113247;28;20107;-74
2022/11/28 05:27:28;;;;;;;36.65;24.65;;;7.20;99.90;;;;;;5114729;28;20079;-75
2022/11/28 05:29:53;;;;;;;36.90;24.25;;;7.30;99.90;;;;;;5114632;28;20078;-75
2022/11/28 05:32:19;;;;;;;35.58;25.13;;;8.00;99.90;;;;;;5132845;28;20483;-75
2022/11/28 05:34:45;;;;;;;35.97;23.67;;;7.20;99.90;;;;;;5132607;28;20043;-76
2022/11/28 05:37:11;;;;;;;36.95;25.27;;;7.30;99.90;;;;;;5132934;28;20047;-75
2022/11/28 05:39:36;;;;;;;35.92;23.98;;;7.30;99.90;;;;;;5132995;28;20037;-75
2022/11/28 05:42:02;;;;;;;35.72;23.70;;;7.70;99.90;;;;;;5132734;28;20035;-75
2022/11/28 05:44:27;;;;;;;35.83;24.17;;;7.30;99.90;;;;;;5132520;28;20107;-75
2022/11/28 05:46:53;;;;;;;35.13;23.55;;;7.30;99.90;;;;;;5131272;28;20048;-75
2022/11/28 05:49:22;;;;;;;38.65;25.08;;;7.30;99.90;;;;;;5113963;28;20039;-75
2022/11/28 05:51:48;;;;;;;34.58;24.50;;;7.30;99.90;;;;;;5113832;28;20110;-75
2022/11/28 05:54:14;;;;;;;34.65;23.05;;;7.30;99.90;;;;;;5113422;28;20551;-75
2022/11/28 05:56:39;;;;;;;35.72;23.45;;;7.30;99.90;;;;;;5103464;28;20035;-75
2022/11/28 05:59:05;;;;;;;33.40;22.60;;;7.30;99.90;;;;;;5112518;28;20043;-75
2022/11/28 06:01:31;;;;;;;32.72;23.10;;;7.40;99.90;;;;;;5112043;28;20051;-75
2022/11/28 06:03:59;;;;;;;31.55;20.77;;;7.70;99.90;;;;;;5112556;28;20036;-75
2022/11/28 06:06:28;;;;;;;30.98;20.67;;;7.40;99.90;;;;;;5094119;28;20493;-75
2022/11/28 06:08:54;;;;;;;32.80;22.52;;;7.40;99.90;;;;;;5123501;28;20433;-75
2022/11/28 06:11:22;;;;;;;31.75;20.88;;;7.40;99.90;;;;;;5132409;28;20130;-75
2022/11/28 06:13:48;;;;;;;36.50;22.33;;;8.00;99.90;;;;;;5132728;28;20035;-75
2022/11/28 06:16:17;;;;;;;30.05;20.77;;;7.50;99.90;;;;;;5132677;27;20043;-75
2022/11/28 06:18:43;;;;;;;36.25;23.95;;;7.40;99.90;;;;;;5135690;27;20043;-75
2022/11/28 06:21:10;;;;;;;37.30;24.20;;;7.40;99.90;;;;;;5136174;27;20089;-75
2022/11/28 06:23:36;;;;;;;33.65;22.38;;;7.40;99.90;;;;;;5135372;27;20047;-75
2022/11/28 06:26:10;;;;;;;31.38;22.95;;;7.40;99.90;;;;;;5135619;27;20103;-74
2022/11/28 06:28:36;;;;;;;31.65;21.30;;;7.50;99.90;;;;;;5122016;27;20085;-75
2022/11/28 06:31:02;;;;;;;32.47;22.17;;;7.50;99.90;;;;;;5117385;27;20043;-75
2022/11/28 06:33:28;;;;;;;35.65;23.20;;;7.50;99.90;;;;;;5117139;27;20047;-75
2022/11/28 06:36:04;;;;;;;34.35;21.45;;;7.50;99.90;;;;;;5135446;27;20046;-75
2022/11/28 06:38:30;;;;;;;32.60;20.17;;;7.60;99.90;;;;;;5097020;28;20130;-75
2022/11/28 06:41:08;;;;;;;29.75;21.45;;;7.60;99.90;;;;;;5115732;27;20031;-75
2022/11/28 06:43:34;;;;;;;30.85;20.13;;;7.60;99.90;;;;;;5115857;27;20503;-75
2022/11/28 06:46:00;;;;;;;30.45;19.85;;;7.60;99.90;;;;;;5134604;27;20131;-75
2022/11/28 06:48:26;;;;;;;32.53;20.02;;;7.60;99.90;;;;;;5135692;27;20150;-75
2022/11/28 06:50:52;;;;;;;30.58;20.10;;;7.60;99.90;;;;;;5135366;27;20046;-75
2022/11/28 06:53:18;;;;;;;32.47;19.83;;;7.60;99.90;;;;;;5134433;27;20043;-74
2022/11/28 06:55:44;;;;;;;31.25;19.20;;;8.60;99.90;;;;;;5117024;27;20039;-75
2022/11/28 06:58:10;;;;;;;31.67;18.85;;;7.70;99.90;;;;;;5116625;27;20054;-75
2022/11/28 07:00:37;;;;;;;26.50;16.90;;;8.20;99.90;;;;;;5134897;27;20031;-75
2022/11/28 07:03:02;;;;;;;28.00;18.17;;;8.80;99.90;;;;;;5117037;27;20051;-75
2022/11/28 07:05:29;;;;;;;26.90;17.85;;;7.70;99.90;;;;;;5135036;27;20042;-75
2022/11/28 07:07:59;;;;;;;28.17;17.90;;;7.60;99.90;;;;;;5099650;27;20087;-75
2022/11/28 07:10:26;;;;;;;24.73;15.85;;;8.80;99.90;;;;;;5134204;27;20039;-75
2022/11/28 07:12:56;;;;;;;26.05;16.88;;;7.70;99.90;;;;;;5116479;27;20050;-75
2022/11/28 07:15:22;;;;;;;24.85;17.00;;;7.70;99.90;;;;;;5132568;27;20155;-75
2022/11/28 07:17:48;;;;;;;27.08;18.33;;;7.70;99.90;;;;;;5132910;27;20050;-75
2022/11/28 07:20:13;;;;;;;27.13;17.95;;;7.70;99.90;;;;;;5132520;27;20491;-75
2022/11/28 07:22:39;;;;;;;20.58;15.07;;;7.70;99.90;;;;;;5132248;27;20046;-75
2022/11/28 07:25:05;;;;;;;25.38;15.88;;;7.70;99.90;;;;;;5115969;27;20070;-75
2022/11/28 07:27:31;;;;;;;24.40;16.33;;;7.80;99.90;;;;;;5134616;27;20043;-75
2022/11/28 07:29:57;;;;;;;28.08;17.15;;;7.80;99.90;;;;;;5115806;27;20159;-75
2022/11/28 07:32:22;;;;;;;23.60;16.95;;;7.80;99.90;;;;;;5114852;27;20058;-75
2022/11/28 07:34:49;;;;;;;25.60;17.58;;;7.70;99.90;;;;;;5096027;28;20345;-76
2022/11/28 07:37:15;;;;;;;25.23;16.70;;;7.70;99.90;;;;;;5114051;28;20050;-75
2022/11/28 07:39:43;;;;;;;21.75;14.48;;;7.80;99.90;;;;;;5117082;27;20036;-75
2022/11/28 07:42:09;;;;;;;20.52;16.23;;;7.80;99.90;;;;;;5134665;27;20043;-75
2022/11/28 07:44:34;;;;;;;24.65;16.92;;;7.80;99.90;;;;;;5115531;27;20054;-75
2022/11/28 07:47:00;;;;;;;26.65;18.27;;;7.80;99.90;;;;;;5113830;27;20055;-75
2022/11/28 07:49:26;;;;;;;25.15;17.08;;;7.80;99.90;;;;;;5098892;27;20051;-76
2022/11/28 07:51:51;;;;;;;25.80;17.50;;;7.70;99.90;;;;;;5133508;27;20154;-75
2022/11/28 07:54:17;;;;;;;24.67;17.67;;;7.70;99.90;;;;;;5134391;27;20073;-75
2022/11/28 07:56:43;;;;;;;23.70;17.13;;;7.70;99.90;;;;;;5134417;27;20035;-75
2022/11/28 07:59:09;;;;;;;24.75;17.20;;;8.20;99.90;;;;;;5122854;27;20038;-75
2022/11/28 08:01:35;;;;;;;26.30;17.65;;;7.70;99.90;;;;;;5093735;28;20052;-75
2022/11/28 08:04:02;;;;;;;22.65;16.02;;;7.80;99.90;;;;;;5103674;27;20027;-75
2022/11/28 08:06:29;;;;;;;24.52;17.33;;;7.80;99.90;;;;;;5133772;27;20047;-75
2022/11/28 08:08:56;;;;;;;22.77;16.08;;;7.50;99.90;;;;;;5115689;27;20075;-75
2022/11/28 08:11:24;;;;;;;23.95;16.90;;;7.80;99.90;;;;;;5133698;27;20031;-75
2022/11/28 08:13:50;;;;;;;21.52;16.50;;;7.80;99.90;;;;;;5134207;27;20070;-77
2022/11/28 08:16:21;;;;;;;24.33;16.35;;;6.60;99.90;;;;;;5133199;27;20073;-77
2022/11/28 08:18:48;;;;;;;26.65;18.02;;;7.80;99.90;;;;;;5133811;27;20070;-77
2022/11/28 08:21:19;;;;;;;27.20;18.10;;;7.80;99.90;;;;;;5114402;27;20045;-77
2022/11/28 08:23:45;;;;;;;24.55;17.00;;;7.80;99.90;;;;;;5133839;27;20043;-77
2022/11/28 08:26:14;;;;;;;27.52;18.15;;;7.80;99.90;;;;;;5133901;27;20050;-77
2022/11/28 08:28:41;;;;;;;27.17;17.98;;;7.70;99.90;;;;;;5115570;27;20042;-81
2022/11/28 08:31:31;;;;;;;28.23;18.42;;;8.60;99.90;;;;;;5110519;28;20039;-80
2022/11/28 08:33:59;;;;;;;25.67;17.50;;;7.80;99.90;;;;;;5113137;28;20402;-79
2022/11/28 08:36:26;;;;;;;29.10;18.73;;;7.80;99.90;;;;;;5112811;28;20044;-78
2022/11/28 08:38:51;;;;;;;21.90;15.25;;;7.80;99.90;;;;;;5094914;28;20039;-79
2022/11/28 08:41:22;;;;;;;30.25;18.45;;;7.80;99.90;;;;;;5093908;28;20126;-80
2022/11/28 08:43:48;;;;;;;27.42;17.85;;;8.60;99.90;;;;;;5113186;27;20035;-79
2022/11/28 08:46:17;;;;;;;25.08;17.10;;;8.00;99.90;;;;;;5114643;27;20051;-79
2022/11/28 08:48:43;;;;;;;30.05;17.30;;;9.30;99.90;;;;;;5114843;27;20051;-80
2022/11/28 08:51:15;;;;;;;24.15;16.13;;;8.50;99.90;;;;;;5132830;27;20627;-78
2022/11/28 08:53:42;;;;;;;23.52;15.02;;;8.20;99.90;;;;;;5115251;27;20373;-79
2022/11/28 08:56:08;;;;;;;23.45;15.52;;;8.90;99.90;;;;;;5132851;27;20119;-77
2022/11/28 08:58:34;;;;;;;22.52;15.10;;;7.80;99.90;;;;;;5133357;27;20505;-78
2022/11/28 09:04:21;;;;;;;22.35;14.68;;;7.80;99.90;;;;;;5016662;23;20393;-77
2022/11/28 09:06:46;;;;;;;21.92;13.98;;;7.80;99.90;;;;;;5002513;28;20461;-77
2022/11/28 09:09:12;;;;;;;20.05;13.85;;;7.80;99.90;;;;;;5007793;28;20077;-76
2022/11/28 09:11:38;;;;;;;23.00;14.85;;;7.80;99.90;;;;;;4992648;28;20430;-77
2022/11/28 09:14:04;;;;;;;22.30;14.20;;;8.70;99.90;;;;;;5004344;28;20085;-77
2022/11/28 09:16:33;;;;;;;18.83;13.35;;;7.80;99.90;;;;;;5006511;28;20339;-77
2022/11/28 09:18:59;;;;;;;19.15;11.95;;;7.90;99.90;;;;;;5022715;28;20525;-78
2022/11/28 09:21:25;;;;;;;20.25;13.27;;;7.90;99.90;;;;;;5007459;28;20126;-77
2022/11/28 09:23:54;;;;;;;19.65;13.13;;;9.40;99.90;;;;;;5007060;28;20054;-77
2022/11/28 09:26:21;;;;;;;19.27;12.85;;;7.90;99.90;;;;;;5008087;28;20124;-78
2022/11/28 09:28:47;;;;;;;18.02;12.73;;;9.00;99.90;;;;;;5007960;28;20102;-78
2022/11/28 09:31:15;;;;;;;17.60;12.05;;;8.00;99.90;;;;;;5007497;28;20525;-78
2022/11/28 09:33:41;;;;;;;17.15;11.93;;;9.00;99.90;;;;;;5004295;28;20042;-78
2022/11/28 09:36:12;;;;;;;16.90;11.02;;;8.00;99.90;;;;;;5007534;28;20034;-78
2022/11/28 09:38:38;;;;;;;14.10;10.25;;;8.00;99.90;;;;;;5005576;28;20046;-78
2022/11/28 09:41:22;;;;;;;17.15;11.23;;;8.70;99.90;;;;;;5005893;28;20046;-79
2022/11/28 09:43:49;;;;;;;13.95;10.68;;;8.00;99.90;;;;;;5005056;28;20046;-79
2022/11/28 09:46:23;;;;;;;14.77;10.73;;;8.00;99.90;;;;;;5006024;28;20382;-78
2022/11/28 09:48:52;;;;;;;15.23;10.07;;;8.90;99.90;;;;;;5006886;28;20566;-80
2022/11/28 09:51:41;;;;;;;15.10;10.13;;;8.00;99.90;;;;;;4993803;28;20093;-78
2022/11/28 09:54:12;;;;;;;13.32;9.75;;;8.00;99.90;;;;;;5009775;28;20089;-78
2022/11/28 09:56:39;;;;;;;12.55;9.77;;;8.00;99.90;;;;;;5009950;28;20104;-78
2022/11/28 09:59:14;;;;;;;17.27;10.55;;;8.00;99.90;;;;;;4976109;28;20072;-77
2022/11/28 10:02:17;;;;;;;13.40;8.98;;;8.40;99.90;;;;;;5011074;28;20049;-77
2022/11/28 10:04:54;;;;;;;12.48;9.00;;;8.10;99.90;;;;;;5012680;28;20054;-78
2022/11/28 10:07:37;;;;;;;12.48;9.30;;;9.30;99.90;;;;;;5011115;28;20125;-78
2022/11/28 10:10:30;;;;;;;13.30;9.60;;;8.10;99.90;;;;;;5008648;28;20058;-78
2022/11/28 10:13:02;;;;;;;13.80;9.13;;;8.00;99.90;;;;;;5009807;28;20782;-78
2022/11/28 10:15:54;;;;;;;12.10;9.35;;;8.40;99.90;;;;;;4992818;28;20104;-78
2022/11/28 10:18:38;;;;;;;14.40;9.10;;;8.10;99.90;;;;;;5008948;28;20069;-78
2022/11/28 10:21:37;;;;;;;15.77;9.50;;;8.10;99.90;;;;;;5009775;28;20088;-78
2022/11/28 10:24:33;;;;;;;12.60;9.30;;;8.10;99.90;;;;;;5008696;28;20048;-79
2022/11/28 10:27:03;;;;;;;11.87;8.47;;;9.40;99.90;;;;;;5010225;28;20449;-77
2022/11/28 10:29:42;;;;;;;12.07;8.43;;;8.10;99.90;;;;;;5010266;28;20765;-78
2022/11/28 10:32:21;;;;;;;12.82;8.60;;;8.20;99.90;;;;;;4991255;28;20047;-78
2022/11/28 10:34:59;;;;;;;13.60;9.38;;;9.00;99.90;;;;;;4990430;28;20471;-78
2022/11/28 10:37:30;;;;;;;12.10;8.25;;;8.10;99.90;;;;;;4972740;28;20086;-78
2022/11/28 10:40:08;;;;;;;12.77;9.55;;;8.20;99.90;;;;;;4989580;28;20043;-78
2022/11/28 10:42:42;;;;;;;12.85;9.38;;;9.30;99.90;;;;;;4989264;28;20112;-78
2022/11/28 10:45:24;;;;;;;12.70;9.68;;;9.40;99.90;;;;;;4989361;28;20138;-77
2022/11/28 10:48:10;;;;;;;11.70;8.75;;;8.20;99.90;;;;;;4989514;28;20049;-78
2022/11/28 10:51:05;;;;;;;12.02;8.80;;;8.30;99.90;;;;;;4979704;28;20498;-78
2022/11/28 10:53:36;;;;;;;12.32;8.63;;;8.20;99.90;;;;;;4990444;28;20046;-78
2022/11/28 10:56:16;;;;;;;11.30;8.98;;;8.30;99.90;;;;;;4990344;28;20125;-78
2022/11/28 10:58:49;;;;;;;11.18;8.55;;;8.30;99.90;;;;;;4955870;28;20105;-79
2022/11/28 11:01:15;;;;;;;13.15;8.98;;;9.60;99.90;;;;;;4973374;28;20334;-78
2022/11/28 11:03:41;;;;;;;11.15;8.88;;;9.60;99.90;;;;;;4988302;28;20125;-78
2022/11/28 11:06:07;;;;;;;14.05;9.25;;;9.50;99.90;;;;;;4985751;28;20058;-78
2022/11/28 11:08:35;;;;;;;13.18;9.38;;;8.30;99.90;;;;;;4973237;28;20502;-78
2022/11/28 11:11:31;;;;;;;11.57;8.52;;;9.50;99.90;;;;;;4990293;28;20050;-78
2022/11/28 11:14:03;;;;;;;12.27;9.02;;;8.40;99.90;;;;;;4992412;28;20046;-78
2022/11/28 11:16:52;;;;;;;13.73;9.35;;;8.40;99.90;;;;;;4989864;28;20042;-78
2022/11/28 11:19:38;;;;;;;11.10;8.55;;;9.80;99.90;;;;;;4987807;28;20058;-78
2022/11/28 11:22:21;;;;;;;10.93;8.45;;;9.70;99.90;;;;;;4990419;28;20530;-78
2022/11/28 11:25:11;;;;;;;12.35;8.30;;;9.30;99.90;;;;;;4990205;28;20065;-78
2022/11/28 11:27:45;;;;;;;12.55;8.98;;;8.50;99.90;;;;;;4988513;28;20078;-79
2022/11/28 11:30:25;;;;;;;11.05;8.05;;;8.50;99.90;;;;;;4990026;28;20061;-79
2022/11/28 11:32:50;;;;;;;12.60;8.35;;;8.50;99.90;;;;;;4986994;28;20443;-78
2022/11/28 11:35:20;;;;;;;11.15;8.70;;;8.50;99.90;;;;;;4989139;28;20069;-78
2022/11/28 11:37:46;;;;;;;11.35;8.82;;;9.60;99.90;;;;;;4990005;28;20454;-78
2022/11/28 11:40:21;;;;;;;11.95;8.80;;;8.70;99.90;;;;;;4987472;28;20121;-78
2022/11/28 11:42:58;;;;;;;10.48;8.20;;;;;;;;;;4988375;28;20046;-79
2022/11/28 11:45:32;;;;;;;10.88;8.18;;;;;;;;;;4989608;28;20583;-79
2022/11/28 11:47:59;;;;;;;14.65;9.57;;;;;;;;;;4988217;28;20046;-81
2022/11/28 11:50:27;;;;;;;12.75;8.68;;;;;;;;;;4972874;28;20046;-79
2022/11/28 11:53:11;;;;;;;11.32;8.45;;;;;;;;;;4990640;28;20174;-80
2022/11/28 11:55:43;;;;;;;11.68;8.70;;;;;;;;;;4987677;28;20363;-79
2022/11/28 11:58:11;;;;;;;12.98;9.95;;;;;;;;;;4987557;28;20499;-79
2022/11/28 12:00:39;;;;;;;14.38;9.55;;;;;;;;;;5002932;28;20416;-80
2022/11/28 12:03:20;;;;;;;11.65;8.70;;;;;;;;;;5008486;28;20548;-80
2022/11/28 12:05:49;;;;;;;12.38;9.07;;;;;;;;;;5008440;28;20060;-80
2022/11/28 12:08:18;;;;;;;12.15;9.45;;;;;;;;;;5008448;28;20517;-80
2022/11/28 12:11:05;;;;;;;13.82;9.23;;;;;;;;;;5009506;28;20085;-80
2022/11/28 12:13:30;;;;;;;;;;;;;;;;;;5009648;28;20054;-79
2022/11/28 12:16:08;;;;;;;12.63;9.30;;;;;;;;;;5006900;28;20396;-80
2022/11/28 12:18:34;;;;;;;12.45;9.35;;;;;;;;;;4983984;28;20260;-75
2022/11/28 12:21:10;;;;;;;12.25;9.30;;;;;;;;;;5000334;28;20112;-76
2022/11/28 12:23:55;;;;;;;11.50;8.60;;;;;;;;;;4983777;28;20133;-76
2022/11/28 12:26:33;;;;;;;12.70;8.88;;;;;;;;;;4997682;28;20122;-77
2022/11/28 12:29:18;;;;;;;14.20;9.40;;;;;;;;;;4995044;28;20057;-76
2022/11/28 12:31:55;;;;;;;11.95;8.90;;;;;;;;;;4995763;28;20392;-75
2022/11/28 12:34:27;;;;;;;11.73;8.88;;;;;;;;;;4994850;28;20085;-76
2022/11/28 12:37:02;;;;;;;11.57;9.02;;;;;;;;;;4993837;28;20049;-76
2022/11/28 12:39:28;;;;;;;11.65;8.48;;;;;;;;;;4994280;28;20469;-75
2022/11/28 12:42:13;;;;;;;12.15;9.43;;;;;;;;;;4990878;28;20046;-75
2022/11/28 12:44:47;;;;;;;13.13;9.60;;;;;;;;;;4995231;28;20473;-75
2022/11/28 12:47:25;;;;;;;12.50;9.25;;;;;;;;;;4994124;28;20458;-75
2022/11/28 12:49:57;;;;;;;11.75;9.10;;;;;;;;;;4992841;28;20048;-76
2022/11/28 12:52:43;;;;;;;11.30;8.68;;;;;;;;;;4992461;28;20432;-75
2022/11/28 12:55:09;;;;;;;;;;;;;;;;;;5003208;28;20141;-75
2022/11/28 12:57:54;;;;;;;11.13;8.35;;;;;;;;;;5035352;28;20028;-74
2022/11/28 13:00:22;;;;;;;10.63;8.55;;;;;;;;;;5019525;28;20197;-81
2022/11/28 13:03:07;;;;;;;13.00;8.65;;;;;;;;;;5006383;28;20120;-80
2022/11/28 13:05:39;;;;;;;10.70;8.32;;;;;;;;;;5009611;28;20056;-79
2022/11/28 13:08:30;;;;;;;10.75;8.30;;;;;;;;;;4992556;28;20055;-80
2022/11/28 13:11:14;;;;;;;10.23;8.25;;;;;;;;;;5008569;28;20129;-79
2022/11/28 13:13:40;;;;;;;11.77;8.48;;;;;;;;;;5006816;28;20049;-80
2022/11/28 13:16:15;;;;;;;11.00;8.20;;;;;;;;;;5007713;28;20065;-79
2022/11/28 13:18:47;;;;;;;10.88;8.98;;;;;;;;;;5007180;28;20092;-78
2022/11/28 13:21:33;;;;;;;11.18;8.70;;;;;;;;;;4987291;28;20150;-79
2022/11/28 13:23:59;;;;;;;10.73;8.43;;;;;;;;;;4987911;28;20046;-79